Terminal Aerodrome Forecast
Issued by NWS Wilmington, NC

Home | Current Version | Previous Version | Text Only | Print | Product List | Glossary On
Versions: 1 2 3 4 5 6 7 8 9 10 11 12 13 14 15 16 17 18 19 20 21 22 23 24 25 26
000
FTUS42 KILM 050500
TAFFLO
TAF
KFLO 050531Z 0506/0606 20012KT P6SM SCT060 WS010/23035KT
      TEMPO 0511/0513 BKN008
     FM051300 23010G16KT P6SM BKN012 BKN060
     FM051500 24013G22KT P6SM SCT007 SCT012 BKN050
     FM052100 34013G23KT 4SM -SHRA OVC006=

USA.gov is the U.S. government's official web portal to all federal, state and local government web resources and services.